AirNav   ProFlight Series 2 Aviation Headset
 
 951 users online  

7MI1 Mc Phail Heliport
Orchard Lake, Michigan, USA

GOING TO ORCHARD LAKE?


FAA INFORMATION EFFECTIVE 18 JUNE 2020

Location

FAA Identifier: 7MI1
Lat/Long: 42-34-20.1180N 083-23-39.7690W
42-34.335300N 083-23.662817W
42.5722550,-83.3943803
(estimated)
Elevation: 970 ft. / 296 m (estimated)
Variation: 06W (1985)
Time zone: UTC -4 (UTC -5 during Standard Time)
Zip code: 48324

Heliport Operations

Heliport use: Private use, PERSONAL USE.
Activation date: 02/1982
Control tower: no
ARTCC: CLEVELAND CENTER
FSS: LANSING FLIGHT SERVICE STATION
Attendance: IREG
Wind indicator: yes
Segmented circle: no
Lights: FOR PERI LGTS CALL 561-310-5494.

Heliport Communications

WX ASOS at PTK (6 nm N): 125.025 (248-886-8551)
WX AWOS-3 at VLL (10 nm E): 119.475 (248-288-4649)
WX ASOS at DET (20 nm SE): PHONE 313-371-9696

Nearby radio navigation aids

VOR radial/distance  VOR name  Freq  Var
SVMr045/13.2SALEM VORTAC114.3003W
DXOr003/21.6DETROIT VOR/DME113.4006W
FNTr153/28.3FLINT VORTAC116.9006W
CRLr008/31.6CARLETON VOR/DME115.7003W

 
NDB name  Hdg/Dist  Freq  Var  ID
GROSSE ILE346/30.241907WRYS .-. -.-- ...
TECUMSEH040/39.023906WTCU - -.-. ..-

Heliport Services

Runway Information

Helipad H1

Dimensions: 350 x 250 ft. / 107 x 76 m
Surface: turf
Latitude: 42-34.335300N
Longitude: 083-23.662817W
Elevation: 970.0 ft.
Traffic pattern: leftleft

Heliport Ownership and Management from official FAA records

Ownership: Privately-owned
Owner: WALTER S. MC PHAIL
5600 PONTIAC TRAIL
ORCHARD LAKE, MI 48033
Phone 561-310-5494
Manager: WALTER S. MC PHAIL
5600 PONTIAC TRAIL
ORCHARD LAKE, MI 48033
Phone 561-310-5494

Heliport Operational Statistics

Aircraft based on the field: 1
Helicopters: 1
    

Additional Remarks

A40 PERIMETER LGTS.
FOR CD CTC DETROIT APCH AT 800-499-8181.

Instrument Procedures

There are no published instrument procedures at 7MI1.

Some nearby airports with instrument procedures:

KPTK - Oakland County International Airport (6 nm N)
KVLL - Oakland/Troy Airport (10 nm E)
Y47 - Oakland Southwest Airport (11 nm W)
1D2 - Canton-Plymouth-Mettetal Airport (14 nm S)
KDET - Coleman A Young Municipal Airport (20 nm SE)
 
Loc | Ops | Rwys | IFR | FBO | Links
Com | Nav | Svcs | Stats | Notes
Area around 7MI1 (Mc Phail Heliport)
 
Road maps at: MapQuest Bing Google
 
Aerial photo
No photo
 
Sectional chart

 
Airport distance calculator
Flying to Mc Phail Heliport? Find the distance to fly.

From to 7MI1

Sunrise and sunset
Times for 14-Jul-2020
 Local
(UTC-4)
 Zulu
(UTC)
Morning civil twilight05:3709:37
Sunrise06:1010:10
Sunset21:0901:09
Evening civil twilight21:4201:42

Current date and time
Zulu (UTC)  15-Jul-2020 02:40:51
Local (UTC-4)  14-Jul-2020 22:40:51
 
METAR
KPTK 
6nm N 
150153Z 17005KT 10SM SCT200 BKN250 24/14 A3007 RMK AO2 SLP177 T02440144 $
KVLL 
10nm E 
150215Z AUTO 16003KT 10SM CLR 25/15 A3010 RMK AO2 T02470145
KDET 
20nm SE 
150153Z 17006KT 10SM CLR 24/15 A3008 RMK AO2 SLP183 T02390150
TAF
KPTK 
6nm N 
141727Z 1418/1518 21005KT P6SM SCT060 SCT250 TEMPO 1418/1421 BKN050 FM150000 15003KT P6SM SCT250 FM151400 19007KT P6SM SCT250
KDET 
20nm SE 
141727Z 1418/1518 16004KT P6SM SCT060 SCT250 TEMPO 1418/1421 BKN050 FM150000 15003KT P6SM SCT250 FM151400 17007KT P6SM SCT250
NOTAMs
Click for the latest NOTAMs
NOTAMs are issued by the DoD/FAA and will open in a separate window not controlled by AirNav.

 

 
 

Would you like to see your business listed on this page?

 If your business provides an interesting product or service to pilots, flight crews, aircraft, or users of the Mc Phail Heliport, you should consider listing it here.  To start the listing process, click on the button below
 
Add a business
 

Other Pages about Mc Phail Heliport

Update a link
 
Copyright © AirNav, LLC. All rights reserved. Privacy Policy  Contact